Portada
METAR-TAF:

METAR-TAF

Aeropuertos :

Plasencia, Italia

latitud: 44-55N, longitud: 009-44E, altitud: 134 m

Observación

El informe se hizo hace 28 minutos, a las 09:55 UTC
Viento 2 kt del este
Temperatura 10°C
Humedad 17%
Presión 1010 hPa
Visibilidad 10 km o más
sin nubes por debajo de 1500 m y sin presencia de cumulonimbus.

METAR: LIMS 270955Z 08002KT CAVOK 10/M14 Q1010 RMK SCT SCT210 VIS MIN 9999 WIND THR30 03002KT BLU

Hora: 11:23 (10:23 UTC)


TAF: falta

Observaciones y pronósticos meteorológicos de más de 4000 aeropuertos (mensajes METAR y TAF).

Los puntos amarillos y rojos representan las estaciones disponibles.

Ponga el ratón en el punto deseado para ver el nombre de la estación.

Haga clic para ver las observaciones y los pronósticos meteorológicos.

Para cambiar el mapa : haga clic en los botones verdes con una cruz de color negro para hacer un zoom, en el botón verde con un guión para alejar o en las flechas verdes para mapas adyacentes.


METAR-TAF: